sensor_id;sensor_type;location;lat;lon;timestamp;P1;durP1;ratioP1;P2;durP2;ratioP2
11422;SDS011;5768;51.476;7.210;2023-04-06T00:01:55;8.27;;;6.97;;
11422;SDS011;5768;51.476;7.210;2023-04-06T00:06:59;10.63;;;7.30;;
11422;SDS011;5768;51.476;7.210;2023-04-06T00:12:01;7.27;;;6.33;;
11422;SDS011;5768;51.476;7.210;2023-04-06T00:17:04;7.83;;;6.60;;
11422;SDS011;5768;51.476;7.210;2023-04-06T00:22:08;9.73;;;6.83;;
11422;SDS011;5768;51.476;7.210;2023-04-06T00:27:10;9.80;;;7.13;;
11422;SDS011;5768;51.476;7.210;2023-04-06T00:32:12;7.80;;;6.87;;
11422;SDS011;5768;51.476;7.210;2023-04-06T00:37:16;9.63;;;7.50;;
11422;SDS011;5768;51.476;7.210;2023-04-06T00:42:19;9.57;;;7.23;;
11422;SDS011;5768;51.476;7.210;2023-04-06T00:47:26;9.97;;;7.43;;
11422;SDS011;5768;51.476;7.210;2023-04-06T00:52:31;9.30;;;7.20;;
11422;SDS011;5768;51.476;7.210;2023-04-06T00:57:35;11.57;;;7.40;;
11422;SDS011;5768;51.476;7.210;2023-04-06T01:02:37;9.47;;;7.00;;
11422;SDS011;5768;51.476;7.210;2023-04-06T01:07:42;8.63;;;7.07;;
11422;SDS011;5768;51.476;7.210;2023-04-06T01:12:44;8.47;;;7.10;;
11422;SDS011;5768;51.476;7.210;2023-04-06T01:17:46;8.60;;;6.83;;
11422;SDS011;5768;51.476;7.210;2023-04-06T01:22:50;9.17;;;7.00;;
11422;SDS011;5768;51.476;7.210;2023-04-06T01:27:52;7.20;;;6.50;;
11422;SDS011;5768;51.476;7.210;2023-04-06T01:32:55;7.27;;;6.17;;
11422;SDS011;5768;51.476;7.210;2023-04-06T01:37:59;6.87;;;6.10;;
11422;SDS011;5768;51.476;7.210;2023-04-06T01:43:01;8.23;;;6.40;;
11422;SDS011;5768;51.476;7.210;2023-04-06T01:48:04;7.63;;;6.70;;
11422;SDS011;5768;51.476;7.210;2023-04-06T01:53:10;7.67;;;6.10;;
11422;SDS011;5768;51.476;7.210;2023-04-06T01:58:12;8.70;;;6.57;;
11422;SDS011;5768;51.476;7.210;2023-04-06T02:03:15;7.07;;;5.93;;
11422;SDS011;5768;51.476;7.210;2023-04-06T02:08:18;6.30;;;5.70;;
11422;SDS011;5768;51.476;7.210;2023-04-06T02:13:21;7.50;;;6.10;;
11422;SDS011;5768;51.476;7.210;2023-04-06T02:18:23;8.00;;;6.03;;
11422;SDS011;5768;51.476;7.210;2023-04-06T02:23:27;7.37;;;5.67;;
11422;SDS011;5768;51.476;7.210;2023-04-06T02:28:30;6.90;;;5.80;;
11422;SDS011;5768;51.476;7.210;2023-04-06T02:33:32;6.93;;;6.23;;
11422;SDS011;5768;51.476;7.210;2023-04-06T02:38:36;6.83;;;6.00;;
11422;SDS011;5768;51.476;7.210;2023-04-06T02:43:38;6.70;;;5.80;;
11422;SDS011;5768;51.476;7.210;2023-04-06T02:48:41;7.27;;;5.50;;
11422;SDS011;5768;51.476;7.210;2023-04-06T02:53:45;6.50;;;5.73;;
11422;SDS011;5768;51.476;7.210;2023-04-06T02:58:47;6.60;;;5.67;;
11422;SDS011;5768;51.476;7.210;2023-04-06T03:03:50;6.80;;;6.10;;
11422;SDS011;5768;51.476;7.210;2023-04-06T03:08:54;8.57;;;6.17;;
11422;SDS011;5768;51.476;7.210;2023-04-06T03:13:57;7.50;;;5.80;;
11422;SDS011;5768;51.476;7.210;2023-04-06T03:19:00;6.47;;;5.83;;
11422;SDS011;5768;51.476;7.210;2023-04-06T03:24:06;7.13;;;5.97;;
11422;SDS011;5768;51.476;7.210;2023-04-06T03:29:09;6.87;;;6.17;;
11422;SDS011;5768;51.476;7.210;2023-04-06T03:34:11;8.20;;;5.93;;
11422;SDS011;5768;51.476;7.210;2023-04-06T03:39:15;6.37;;;5.63;;
11422;SDS011;5768;51.476;7.210;2023-04-06T03:44:17;8.13;;;6.13;;
11422;SDS011;5768;51.476;7.210;2023-04-06T03:49:20;6.73;;;6.03;;
11422;SDS011;5768;51.476;7.210;2023-04-06T03:54:23;8.40;;;6.57;;
11422;SDS011;5768;51.476;7.210;2023-04-06T03:59:26;6.57;;;5.50;;
11422;SDS011;5768;51.476;7.210;2023-04-06T04:04:28;7.07;;;5.93;;
11422;SDS011;5768;51.476;7.210;2023-04-06T04:09:32;6.20;;;5.60;;
11422;SDS011;5768;51.476;7.210;2023-04-06T04:14:34;7.17;;;6.00;;
11422;SDS011;5768;51.476;7.210;2023-04-06T04:19:37;6.97;;;6.10;;
11422;SDS011;5768;51.476;7.210;2023-04-06T04:24:41;7.50;;;6.03;;
11422;SDS011;5768;51.476;7.210;2023-04-06T04:29:43;7.80;;;5.37;;
11422;SDS011;5768;51.476;7.210;2023-04-06T04:34:46;8.23;;;6.00;;
11422;SDS011;5768;51.476;7.210;2023-04-06T04:39:50;6.27;;;5.40;;
11422;SDS011;5768;51.476;7.210;2023-04-06T04:44:53;8.30;;;5.97;;
11422;SDS011;5768;51.476;7.210;2023-04-06T04:49:56;7.63;;;5.87;;
11422;SDS011;5768;51.476;7.210;2023-04-06T04:55:01;7.70;;;6.17;;
11422;SDS011;5768;51.476;7.210;2023-04-06T05:00:04;6.77;;;6.00;;
11422;SDS011;5768;51.476;7.210;2023-04-06T05:05:08;7.20;;;6.20;;
11422;SDS011;5768;51.476;7.210;2023-04-06T05:15:23;8.00;;;6.03;;
11422;SDS011;5768;51.476;7.210;2023-04-06T05:20:26;7.00;;;6.00;;
11422;SDS011;5768;51.476;7.210;2023-04-06T05:25:29;7.67;;;5.73;;
11422;SDS011;5768;51.476;7.210;2023-04-06T05:30:33;8.77;;;5.97;;
11422;SDS011;5768;51.476;7.210;2023-04-06T05:35:36;7.97;;;5.67;;
11422;SDS011;5768;51.476;7.210;2023-04-06T05:40:38;8.23;;;5.83;;
11422;SDS011;5768;51.476;7.210;2023-04-06T05:45:45;7.70;;;5.63;;
11422;SDS011;5768;51.476;7.210;2023-04-06T05:50:47;7.53;;;5.97;;
11422;SDS011;5768;51.476;7.210;2023-04-06T05:55:50;6.97;;;5.80;;
11422;SDS011;5768;51.476;7.210;2023-04-06T06:00:57;7.10;;;5.70;;
11422;SDS011;5768;51.476;7.210;2023-04-06T06:06:00;11.13;;;5.60;;
11422;SDS011;5768;51.476;7.210;2023-04-06T06:11:03;6.63;;;5.37;;
11422;SDS011;5768;51.476;7.210;2023-04-06T06:16:07;8.50;;;5.53;;
11422;SDS011;5768;51.476;7.210;2023-04-06T06:21:09;5.83;;;5.13;;
11422;SDS011;5768;51.476;7.210;2023-04-06T06:26:12;6.43;;;5.10;;
11422;SDS011;5768;51.476;7.210;2023-04-06T06:31:16;7.33;;;5.50;;
11422;SDS011;5768;51.476;7.210;2023-04-06T06:36:20;7.97;;;5.83;;
11422;SDS011;5768;51.476;7.210;2023-04-06T06:41:22;6.03;;;5.23;;
11422;SDS011;5768;51.476;7.210;2023-04-06T06:46:26;6.47;;;5.50;;
11422;SDS011;5768;51.476;7.210;2023-04-06T06:51:28;6.30;;;5.30;;
11422;SDS011;5768;51.476;7.210;2023-04-06T06:56:30;7.50;;;5.60;;
11422;SDS011;5768;51.476;7.210;2023-04-06T07:01:34;8.50;;;5.63;;
11422;SDS011;5768;51.476;7.210;2023-04-06T07:06:38;7.27;;;5.37;;
11422;SDS011;5768;51.476;7.210;2023-04-06T07:11:40;6.73;;;5.80;;
11422;SDS011;5768;51.476;7.210;2023-04-06T07:16:43;6.90;;;6.20;;
11422;SDS011;5768;51.476;7.210;2023-04-06T07:21:50;8.37;;;5.93;;
11422;SDS011;5768;51.476;7.210;2023-04-06T07:26:52;8.00;;;5.70;;
11422;SDS011;5768;51.476;7.210;2023-04-06T07:31:57;6.17;;;5.50;;
11422;SDS011;5768;51.476;7.210;2023-04-06T07:37:00;6.73;;;5.90;;
11422;SDS011;5768;51.476;7.210;2023-04-06T07:42:03;6.50;;;5.77;;
11422;SDS011;5768;51.476;7.210;2023-04-06T07:47:07;7.17;;;6.17;;
11422;SDS011;5768;51.476;7.210;2023-04-06T07:52:10;8.87;;;5.80;;
11422;SDS011;5768;51.476;7.210;2023-04-06T07:57:12;7.67;;;6.20;;
11422;SDS011;5768;51.476;7.210;2023-04-06T08:02:16;7.33;;;5.33;;
11422;SDS011;5768;51.476;7.210;2023-04-06T08:07:19;6.80;;;5.90;;
11422;SDS011;5768;51.476;7.210;2023-04-06T08:12:21;8.27;;;6.33;;
11422;SDS011;5768;51.476;7.210;2023-04-06T08:17:26;8.17;;;6.60;;
11422;SDS011;5768;51.476;7.210;2023-04-06T08:22:30;7.50;;;6.07;;
11422;SDS011;5768;51.476;7.210;2023-04-06T08:27:32;8.37;;;6.47;;
11422;SDS011;5768;51.476;7.210;2023-04-06T08:32:36;7.27;;;6.57;;
11422;SDS011;5768;51.476;7.210;2023-04-06T08:37:38;7.27;;;6.27;;
11422;SDS011;5768;51.476;7.210;2023-04-06T08:42:43;7.27;;;6.57;;
11422;SDS011;5768;51.476;7.210;2023-04-06T08:47:53;8.07;;;6.87;;
11422;SDS011;5768;51.476;7.210;2023-04-06T08:52:59;10.57;;;9.27;;
11422;SDS011;5768;51.476;7.210;2023-04-06T08:58:02;10.30;;;8.37;;
11422;SDS011;5768;51.476;7.210;2023-04-06T09:03:10;8.27;;;7.40;;
11422;SDS011;5768;51.476;7.210;2023-04-06T09:08:15;9.13;;;8.23;;
11422;SDS011;5768;51.476;7.210;2023-04-06T09:13:17;10.30;;;8.57;;
11422;SDS011;5768;51.476;7.210;2023-04-06T09:18:28;10.73;;;8.35;;
11422;SDS011;5768;51.476;7.210;2023-04-06T09:23:32;10.77;;;8.82;;
11422;SDS011;5768;51.476;7.210;2023-04-06T09:28:45;11.05;;;8.05;;
11422;SDS011;5768;51.476;7.210;2023-04-06T09:33:51;11.35;;;9.30;;
11422;SDS011;5768;51.476;7.210;2023-04-06T09:38:55;9.35;;;8.38;;
11422;SDS011;5768;51.476;7.210;2023-04-06T09:44:03;11.40;;;8.52;;
11422;SDS011;5768;51.476;7.210;2023-04-06T09:49:08;12.00;;;9.43;;
11422;SDS011;5768;51.476;7.210;2023-04-06T09:54:15;12.18;;;9.60;;
11422;SDS011;5768;51.476;7.210;2023-04-06T09:59:24;13.35;;;10.10;;
11422;SDS011;5768;51.476;7.210;2023-04-06T10:04:37;11.05;;;9.85;;
11422;SDS011;5768;51.476;7.210;2023-04-06T10:09:48;12.30;;;9.52;;
11422;SDS011;5768;51.476;7.210;2023-04-06T10:14:54;11.38;;;10.13;;
11422;SDS011;5768;51.476;7.210;2023-04-06T10:20:01;15.40;;;10.90;;
11422;SDS011;5768;51.476;7.210;2023-04-06T10:25:12;13.25;;;10.23;;
11422;SDS011;5768;51.476;7.210;2023-04-06T10:30:15;12.95;;;10.80;;
11422;SDS011;5768;51.476;7.210;2023-04-06T10:35:19;14.77;;;11.15;;
11422;SDS011;5768;51.476;7.210;2023-04-06T10:40:22;13.25;;;11.55;;
11422;SDS011;5768;51.476;7.210;2023-04-06T10:45:26;12.38;;;10.13;;
11422;SDS011;5768;51.476;7.210;2023-04-06T10:50:34;12.65;;;10.50;;
11422;SDS011;5768;51.476;7.210;2023-04-06T10:55:38;14.02;;;12.35;;
11422;SDS011;5768;51.476;7.210;2023-04-06T11:00:43;13.82;;;12.23;;
11422;SDS011;5768;51.476;7.210;2023-04-06T11:05:48;13.73;;;12.35;;
11422;SDS011;5768;51.476;7.210;2023-04-06T11:10:52;14.82;;;13.23;;
11422;SDS011;5768;51.476;7.210;2023-04-06T11:16:05;17.38;;;13.75;;
11422;SDS011;5768;51.476;7.210;2023-04-06T11:21:09;17.30;;;11.82;;
11422;SDS011;5768;51.476;7.210;2023-04-06T11:26:12;15.05;;;13.55;;
11422;SDS011;5768;51.476;7.210;2023-04-06T11:31:14;16.92;;;15.07;;
11422;SDS011;5768;51.476;7.210;2023-04-06T11:36:18;16.85;;;15.13;;
11422;SDS011;5768;51.476;7.210;2023-04-06T11:41:23;17.90;;;13.65;;
11422;SDS011;5768;51.476;7.210;2023-04-06T11:46:30;19.58;;;14.80;;
11422;SDS011;5768;51.476;7.210;2023-04-06T11:51:36;20.40;;;14.15;;
11422;SDS011;5768;51.476;7.210;2023-04-06T11:56:38;16.85;;;14.68;;
11422;SDS011;5768;51.476;7.210;2023-04-06T12:01:44;12.10;;;10.40;;
11422;SDS011;5768;51.476;7.210;2023-04-06T12:06:48;13.15;;;11.40;;
11422;SDS011;5768;51.476;7.210;2023-04-06T12:11:51;13.60;;;11.63;;
11422;SDS011;5768;51.476;7.210;2023-04-06T12:16:54;16.27;;;11.35;;
11422;SDS011;5768;51.476;7.210;2023-04-06T12:21:57;11.77;;;10.07;;
11422;SDS011;5768;51.476;7.210;2023-04-06T12:27:00;15.13;;;11.20;;
11422;SDS011;5768;51.476;7.210;2023-04-06T12:32:02;12.57;;;10.55;;
11422;SDS011;5768;51.476;7.210;2023-04-06T12:37:06;9.68;;;8.25;;
11422;SDS011;5768;51.476;7.210;2023-04-06T12:42:08;18.08;;;11.40;;
11422;SDS011;5768;51.476;7.210;2023-04-06T12:47:11;14.60;;;11.57;;
11422;SDS011;5768;51.476;7.210;2023-04-06T12:52:14;17.02;;;10.85;;
11422;SDS011;5768;51.476;7.210;2023-04-06T12:57:17;14.30;;;9.82;;
11422;SDS011;5768;51.476;7.210;2023-04-06T13:02:20;15.65;;;11.23;;
11422;SDS011;5768;51.476;7.210;2023-04-06T13:07:24;15.27;;;10.60;;
11422;SDS011;5768;51.476;7.210;2023-04-06T13:12:27;14.07;;;11.32;;
11422;SDS011;5768;51.476;7.210;2023-04-06T13:17:29;15.32;;;11.02;;
11422;SDS011;5768;51.476;7.210;2023-04-06T13:22:32;14.00;;;11.75;;
11422;SDS011;5768;51.476;7.210;2023-04-06T13:27:35;14.32;;;11.02;;
11422;SDS011;5768;51.476;7.210;2023-04-06T13:32:37;14.65;;;11.35;;
11422;SDS011;5768;51.476;7.210;2023-04-06T13:37:41;12.75;;;10.25;;
11422;SDS011;5768;51.476;7.210;2023-04-06T13:42:44;11.63;;;9.38;;
11422;SDS011;5768;51.476;7.210;2023-04-06T13:47:46;12.98;;;10.98;;
11422;SDS011;5768;51.476;7.210;2023-04-06T13:52:51;13.05;;;11.00;;
11422;SDS011;5768;51.476;7.210;2023-04-06T13:57:54;12.43;;;10.57;;
11422;SDS011;5768;51.476;7.210;2023-04-06T14:02:56;14.63;;;11.27;;
11422;SDS011;5768;51.476;7.210;2023-04-06T14:08:00;14.15;;;10.18;;
11422;SDS011;5768;51.476;7.210;2023-04-06T14:13:03;11.00;;;8.63;;
11422;SDS011;5768;51.476;7.210;2023-04-06T14:18:05;9.65;;;7.90;;
11422;SDS011;5768;51.476;7.210;2023-04-06T14:23:09;10.27;;;8.95;;
11422;SDS011;5768;51.476;7.210;2023-04-06T14:28:12;11.68;;;9.93;;
11422;SDS011;5768;51.476;7.210;2023-04-06T14:33:15;10.02;;;7.10;;
11422;SDS011;5768;51.476;7.210;2023-04-06T14:38:18;13.95;;;11.00;;
11422;SDS011;5768;51.476;7.210;2023-04-06T14:43:25;12.05;;;10.80;;
11422;SDS011;5768;51.476;7.210;2023-04-06T14:48:28;10.50;;;9.38;;
11422;SDS011;5768;51.476;7.210;2023-04-06T14:53:32;11.73;;;9.02;;
11422;SDS011;5768;51.476;7.210;2023-04-06T14:58:35;10.73;;;9.73;;
11422;SDS011;5768;51.476;7.210;2023-04-06T15:03:37;11.25;;;9.32;;
11422;SDS011;5768;51.476;7.210;2023-04-06T15:08:41;10.02;;;7.97;;
11422;SDS011;5768;51.476;7.210;2023-04-06T15:13:44;9.77;;;7.70;;
11422;SDS011;5768;51.476;7.210;2023-04-06T15:18:46;8.48;;;7.57;;
11422;SDS011;5768;51.476;7.210;2023-04-06T15:23:50;8.55;;;7.65;;
11422;SDS011;5768;51.476;7.210;2023-04-06T15:28:52;8.32;;;7.45;;
11422;SDS011;5768;51.476;7.210;2023-04-06T15:33:55;8.90;;;7.93;;
11422;SDS011;5768;51.476;7.210;2023-04-06T15:38:58;7.68;;;6.88;;
11422;SDS011;5768;51.476;7.210;2023-04-06T15:44:01;8.07;;;7.28;;
11422;SDS011;5768;51.476;7.210;2023-04-06T15:49:03;8.00;;;6.70;;
11422;SDS011;5768;51.476;7.210;2023-04-06T15:54:07;7.93;;;6.75;;
11422;SDS011;5768;51.476;7.210;2023-04-06T15:59:09;7.80;;;7.00;;
11422;SDS011;5768;51.476;7.210;2023-04-06T16:04:12;7.32;;;6.50;;
11422;SDS011;5768;51.476;7.210;2023-04-06T16:09:15;7.97;;;5.55;;
11422;SDS011;5768;51.476;7.210;2023-04-06T16:14:18;6.70;;;4.47;;
11422;SDS011;5768;51.476;7.210;2023-04-06T16:19:20;6.13;;;5.50;;
11422;SDS011;5768;51.476;7.210;2023-04-06T16:24:27;6.43;;;5.73;;
11422;SDS011;5768;51.476;7.210;2023-04-06T16:29:30;5.77;;;5.27;;
11422;SDS011;5768;51.476;7.210;2023-04-06T16:34:34;5.83;;;5.27;;
11422;SDS011;5768;51.476;7.210;2023-04-06T16:39:38;7.20;;;5.87;;
11422;SDS011;5768;51.476;7.210;2023-04-06T16:44:45;6.70;;;6.10;;
11422;SDS011;5768;51.476;7.210;2023-04-06T16:49:47;6.07;;;5.47;;
11422;SDS011;5768;51.476;7.210;2023-04-06T16:54:51;5.90;;;5.30;;
11422;SDS011;5768;51.476;7.210;2023-04-06T16:59:53;3.80;;;3.43;;
11422;SDS011;5768;51.476;7.210;2023-04-06T17:04:55;4.90;;;3.93;;
11422;SDS011;5768;51.476;7.210;2023-04-06T17:09:59;4.77;;;4.37;;
11422;SDS011;5768;51.476;7.210;2023-04-06T17:15:02;4.93;;;4.53;;
11422;SDS011;5768;51.476;7.210;2023-04-06T17:20:06;4.73;;;4.33;;
11422;SDS011;5768;51.476;7.210;2023-04-06T17:25:11;6.00;;;5.40;;
11422;SDS011;5768;51.476;7.210;2023-04-06T17:30:14;5.00;;;4.60;;
11422;SDS011;5768;51.476;7.210;2023-04-06T17:35:16;5.90;;;5.30;;
11422;SDS011;5768;51.476;7.210;2023-04-06T17:40:20;6.23;;;4.70;;
11422;SDS011;5768;51.476;7.210;2023-04-06T17:45:23;4.93;;;4.50;;
11422;SDS011;5768;51.476;7.210;2023-04-06T17:50:25;5.20;;;4.70;;
11422;SDS011;5768;51.476;7.210;2023-04-06T17:55:29;4.23;;;3.83;;
11422;SDS011;5768;51.476;7.210;2023-04-06T18:00:32;4.03;;;3.50;;
11422;SDS011;5768;51.476;7.210;2023-04-06T18:05:34;3.50;;;3.20;;
11422;SDS011;5768;51.476;7.210;2023-04-06T18:10:38;4.30;;;3.90;;
11422;SDS011;5768;51.476;7.210;2023-04-06T18:15:41;4.87;;;3.53;;
11422;SDS011;5768;51.476;7.210;2023-04-06T18:20:44;4.30;;;3.90;;
11422;SDS011;5768;51.476;7.210;2023-04-06T18:25:47;4.97;;;4.47;;
11422;SDS011;5768;51.476;7.210;2023-04-06T18:30:50;6.23;;;4.80;;
11422;SDS011;5768;51.476;7.210;2023-04-06T18:35:53;5.27;;;4.77;;
11422;SDS011;5768;51.476;7.210;2023-04-06T18:40:58;5.40;;;4.90;;
11422;SDS011;5768;51.476;7.210;2023-04-06T18:46:00;6.20;;;5.30;;
11422;SDS011;5768;51.476;7.210;2023-04-06T18:51:03;5.37;;;4.63;;
11422;SDS011;5768;51.476;7.210;2023-04-06T18:56:13;5.57;;;5.07;;
11422;SDS011;5768;51.476;7.210;2023-04-06T19:01:21;5.60;;;4.97;;
11422;SDS011;5768;51.476;7.210;2023-04-06T19:06:25;5.90;;;5.30;;
11422;SDS011;5768;51.476;7.210;2023-04-06T19:11:29;6.37;;;5.13;;
11422;SDS011;5768;51.476;7.210;2023-04-06T19:16:32;5.93;;;5.33;;
11422;SDS011;5768;51.476;7.210;2023-04-06T19:21:40;6.27;;;5.70;;
11422;SDS011;5768;51.476;7.210;2023-04-06T19:26:43;6.37;;;5.77;;
11422;SDS011;5768;51.476;7.210;2023-04-06T19:31:46;5.97;;;5.30;;
11422;SDS011;5768;51.476;7.210;2023-04-06T19:36:49;6.60;;;6.00;;
11422;SDS011;5768;51.476;7.210;2023-04-06T19:41:53;6.53;;;5.93;;
11422;SDS011;5768;51.476;7.210;2023-04-06T19:46:56;6.00;;;5.50;;
11422;SDS011;5768;51.476;7.210;2023-04-06T19:51:59;6.50;;;5.80;;
11422;SDS011;5768;51.476;7.210;2023-04-06T19:57:03;6.60;;;5.57;;
11422;SDS011;5768;51.476;7.210;2023-04-06T20:02:06;4.83;;;4.40;;
11422;SDS011;5768;51.476;7.210;2023-04-06T20:07:08;5.33;;;4.63;;
11422;SDS011;5768;51.476;7.210;2023-04-06T20:12:12;6.87;;;5.77;;
11422;SDS011;5768;51.476;7.210;2023-04-06T20:17:14;5.70;;;5.20;;
11422;SDS011;5768;51.476;7.210;2023-04-06T20:22:17;7.10;;;5.93;;
11422;SDS011;5768;51.476;7.210;2023-04-06T20:27:21;5.03;;;4.63;;
11422;SDS011;5768;51.476;7.210;2023-04-06T20:32:23;5.03;;;4.63;;
11422;SDS011;5768;51.476;7.210;2023-04-06T20:37:25;5.77;;;5.23;;
11422;SDS011;5768;51.476;7.210;2023-04-06T20:42:29;5.17;;;4.67;;
11422;SDS011;5768;51.476;7.210;2023-04-06T20:47:32;4.87;;;4.43;;
11422;SDS011;5768;51.476;7.210;2023-04-06T20:52:34;5.00;;;4.50;;
11422;SDS011;5768;51.476;7.210;2023-04-06T20:57:38;4.53;;;4.13;;
11422;SDS011;5768;51.476;7.210;2023-04-06T21:02:41;5.07;;;4.23;;
11422;SDS011;5768;51.476;7.210;2023-04-06T21:07:43;5.23;;;4.53;;
11422;SDS011;5768;51.476;7.210;2023-04-06T21:12:47;4.77;;;4.37;;
11422;SDS011;5768;51.476;7.210;2023-04-06T21:17:49;4.20;;;3.80;;
11422;SDS011;5768;51.476;7.210;2023-04-06T21:22:52;3.97;;;3.67;;
11422;SDS011;5768;51.476;7.210;2023-04-06T21:27:55;4.10;;;3.70;;
11422;SDS011;5768;51.476;7.210;2023-04-06T21:32:58;3.77;;;3.43;;
11422;SDS011;5768;51.476;7.210;2023-04-06T21:38:00;3.60;;;3.30;;
11422;SDS011;5768;51.476;7.210;2023-04-06T21:43:04;3.50;;;3.20;;
11422;SDS011;5768;51.476;7.210;2023-04-06T21:48:06;3.90;;;3.60;;
11422;SDS011;5768;51.476;7.210;2023-04-06T21:53:09;4.13;;;3.73;;
11422;SDS011;5768;51.476;7.210;2023-04-06T21:58:13;4.20;;;3.80;;
11422;SDS011;5768;51.476;7.210;2023-04-06T22:03:15;4.07;;;3.70;;
11422;SDS011;5768;51.476;7.210;2023-04-06T22:08:18;4.30;;;3.90;;
11422;SDS011;5768;51.476;7.210;2023-04-06T22:13:22;4.00;;;3.60;;
11422;SDS011;5768;51.476;7.210;2023-04-06T22:18:26;4.30;;;3.90;;
11422;SDS011;5768;51.476;7.210;2023-04-06T22:23:29;4.20;;;3.80;;
11422;SDS011;5768;51.476;7.210;2023-04-06T22:28:33;4.10;;;3.80;;
11422;SDS011;5768;51.476;7.210;2023-04-06T22:33:36;4.33;;;4.00;;
11422;SDS011;5768;51.476;7.210;2023-04-06T22:38:38;4.80;;;4.40;;
11422;SDS011;5768;51.476;7.210;2023-04-06T22:43:41;4.70;;;4.30;;
11422;SDS011;5768;51.476;7.210;2023-04-06T22:48:44;4.97;;;4.47;;
11422;SDS011;5768;51.476;7.210;2023-04-06T22:53:46;4.83;;;4.37;;
11422;SDS011;5768;51.476;7.210;2023-04-06T22:58:50;5.17;;;4.73;;
11422;SDS011;5768;51.476;7.210;2023-04-06T23:03:52;5.40;;;5.00;;
11422;SDS011;5768;51.476;7.210;2023-04-06T23:08:54;5.30;;;4.90;;
11422;SDS011;5768;51.476;7.210;2023-04-06T23:13:58;5.37;;;4.97;;
11422;SDS011;5768;51.476;7.210;2023-04-06T23:19:00;6.30;;;5.80;;
11422;SDS011;5768;51.476;7.210;2023-04-06T23:24:03;6.07;;;5.57;;
11422;SDS011;5768;51.476;7.210;2023-04-06T23:29:07;6.00;;;5.50;;
11422;SDS011;5768;51.476;7.210;2023-04-06T23:34:09;6.70;;;6.10;;
11422;SDS011;5768;51.476;7.210;2023-04-06T23:39:11;6.63;;;6.03;;
11422;SDS011;5768;51.476;7.210;2023-04-06T23:44:16;6.80;;;6.30;;
11422;SDS011;5768;51.476;7.210;2023-04-06T23:49:18;6.80;;;6.20;;
11422;SDS011;5768;51.476;7.210;2023-04-06T23:54:20;7.40;;;6.77;;
11422;SDS011;5768;51.476;7.210;2023-04-06T23:59:24;7.13;;;6.53;;
